sensor_id;sensor_type;location;lat;lon;timestamp;P1;durP1;ratioP1;P2;durP2;ratioP2
6735;SDS011;3405;50.576;12.364;2023-09-30T00:00:41;25.67;;;11.05;;
6735;SDS011;3405;50.576;12.364;2023-09-30T00:03:07;28.83;;;11.88;;
6735;SDS011;3405;50.576;12.364;2023-09-30T00:05:35;27.13;;;11.25;;
6735;SDS011;3405;50.576;12.364;2023-09-30T00:08:02;30.42;;;11.27;;
6735;SDS011;3405;50.576;12.364;2023-09-30T00:10:28;27.00;;;11.15;;
6735;SDS011;3405;50.576;12.364;2023-09-30T00:12:55;25.42;;;10.30;;
6735;SDS011;3405;50.576;12.364;2023-09-30T00:15:21;27.17;;;10.27;;
6735;SDS011;3405;50.576;12.364;2023-09-30T00:17:47;21.88;;;9.02;;
6735;SDS011;3405;50.576;12.364;2023-09-30T00:20:13;22.83;;;9.50;;
6735;SDS011;3405;50.576;12.364;2023-09-30T00:22:40;23.20;;;8.98;;
6735;SDS011;3405;50.576;12.364;2023-09-30T00:25:06;17.98;;;8.60;;
6735;SDS011;3405;50.576;12.364;2023-09-30T00:27:32;22.50;;;9.05;;
6735;SDS011;3405;50.576;12.364;2023-09-30T00:29:58;20.50;;;8.75;;
6735;SDS011;3405;50.576;12.364;2023-09-30T00:32:24;20.52;;;8.95;;
6735;SDS011;3405;50.576;12.364;2023-09-30T00:34:50;20.80;;;8.48;;
6735;SDS011;3405;50.576;12.364;2023-09-30T00:37:17;18.83;;;7.25;;
6735;SDS011;3405;50.576;12.364;2023-09-30T00:39:43;16.30;;;6.93;;
6735;SDS011;3405;50.576;12.364;2023-09-30T00:42:09;13.80;;;5.90;;
6735;SDS011;3405;50.576;12.364;2023-09-30T00:44:35;11.70;;;5.60;;
6735;SDS011;3405;50.576;12.364;2023-09-30T00:47:01;12.82;;;5.53;;
6735;SDS011;3405;50.576;12.364;2023-09-30T00:49:27;12.98;;;5.55;;
6735;SDS011;3405;50.576;12.364;2023-09-30T00:51:54;11.07;;;4.85;;
6735;SDS011;3405;50.576;12.364;2023-09-30T00:54:20;8.93;;;3.97;;
6735;SDS011;3405;50.576;12.364;2023-09-30T00:56:47;9.23;;;3.80;;
6735;SDS011;3405;50.576;12.364;2023-09-30T00:59:14;8.50;;;3.50;;
6735;SDS011;3405;50.576;12.364;2023-09-30T01:01:44;7.18;;;3.47;;
6735;SDS011;3405;50.576;12.364;2023-09-30T01:04:10;6.75;;;3.25;;
6735;SDS011;3405;50.576;12.364;2023-09-30T01:06:37;7.25;;;3.58;;
6735;SDS011;3405;50.576;12.364;2023-09-30T01:09:03;5.75;;;3.03;;
6735;SDS011;3405;50.576;12.364;2023-09-30T01:11:29;7.13;;;2.90;;
6735;SDS011;3405;50.576;12.364;2023-09-30T01:13:56;6.30;;;2.50;;
6735;SDS011;3405;50.576;12.364;2023-09-30T01:16:22;5.78;;;2.95;;
6735;SDS011;3405;50.576;12.364;2023-09-30T01:18:48;6.07;;;2.38;;
6735;SDS011;3405;50.576;12.364;2023-09-30T01:21:14;4.97;;;2.45;;
6735;SDS011;3405;50.576;12.364;2023-09-30T01:23:40;5.85;;;2.63;;
6735;SDS011;3405;50.576;12.364;2023-09-30T01:26:09;7.82;;;3.15;;
6735;SDS011;3405;50.576;12.364;2023-09-30T01:28:37;4.93;;;2.58;;
6735;SDS011;3405;50.576;12.364;2023-09-30T01:31:04;5.40;;;2.70;;
6735;SDS011;3405;50.576;12.364;2023-09-30T01:33:30;5.00;;;2.88;;
6735;SDS011;3405;50.576;12.364;2023-09-30T01:35:56;5.38;;;2.80;;
6735;SDS011;3405;50.576;12.364;2023-09-30T01:38:22;4.53;;;2.47;;
6735;SDS011;3405;50.576;12.364;2023-09-30T01:40:48;5.28;;;2.58;;
6735;SDS011;3405;50.576;12.364;2023-09-30T01:43:14;4.15;;;2.47;;
6735;SDS011;3405;50.576;12.364;2023-09-30T01:45:41;4.45;;;2.90;;
6735;SDS011;3405;50.576;12.364;2023-09-30T01:48:07;2.70;;;2.30;;
6735;SDS011;3405;50.576;12.364;2023-09-30T01:50:35;5.53;;;2.47;;
6735;SDS011;3405;50.576;12.364;2023-09-30T01:53:01;5.10;;;2.58;;
6735;SDS011;3405;50.576;12.364;2023-09-30T01:55:27;4.97;;;2.35;;
6735;SDS011;3405;50.576;12.364;2023-09-30T01:57:53;4.82;;;2.38;;
6735;SDS011;3405;50.576;12.364;2023-09-30T02:00:19;3.53;;;2.20;;
6735;SDS011;3405;50.576;12.364;2023-09-30T02:02:45;3.10;;;2.00;;
6735;SDS011;3405;50.576;12.364;2023-09-30T02:05:11;3.28;;;2.50;;
6735;SDS011;3405;50.576;12.364;2023-09-30T02:07:38;3.50;;;1.90;;
6735;SDS011;3405;50.576;12.364;2023-09-30T02:10:04;3.47;;;2.08;;
6735;SDS011;3405;50.576;12.364;2023-09-30T02:12:30;3.90;;;2.30;;
6735;SDS011;3405;50.576;12.364;2023-09-30T02:14:57;4.95;;;1.80;;
6735;SDS011;3405;50.576;12.364;2023-09-30T02:17:23;3.15;;;1.95;;
6735;SDS011;3405;50.576;12.364;2023-09-30T02:19:50;3.97;;;1.98;;
6735;SDS011;3405;50.576;12.364;2023-09-30T02:22:16;3.10;;;1.83;;
6735;SDS011;3405;50.576;12.364;2023-09-30T02:24:42;2.22;;;1.80;;
6735;SDS011;3405;50.576;12.364;2023-09-30T02:27:08;2.65;;;1.60;;
6735;SDS011;3405;50.576;12.364;2023-09-30T02:29:33;1.58;;;1.10;;
6735;SDS011;3405;50.576;12.364;2023-09-30T02:31:59;2.33;;;1.55;;
6735;SDS011;3405;50.576;12.364;2023-09-30T02:34:25;2.90;;;1.80;;
6735;SDS011;3405;50.576;12.364;2023-09-30T02:36:51;2.15;;;1.15;;
6735;SDS011;3405;50.576;12.364;2023-09-30T02:39:20;2.30;;;1.70;;
6735;SDS011;3405;50.576;12.364;2023-09-30T02:41:46;1.80;;;1.33;;
6735;SDS011;3405;50.576;12.364;2023-09-30T02:44:14;4.03;;;1.60;;
6735;SDS011;3405;50.576;12.364;2023-09-30T02:46:40;2.15;;;1.40;;
6735;SDS011;3405;50.576;12.364;2023-09-30T02:49:06;1.90;;;1.42;;
6735;SDS011;3405;50.576;12.364;2023-09-30T02:51:32;5.60;;;1.85;;
6735;SDS011;3405;50.576;12.364;2023-09-30T02:53:58;2.42;;;1.70;;
6735;SDS011;3405;50.576;12.364;2023-09-30T02:56:24;3.13;;;1.60;;
6735;SDS011;3405;50.576;12.364;2023-09-30T02:58:51;3.92;;;2.10;;
6735;SDS011;3405;50.576;12.364;2023-09-30T03:01:17;2.53;;;1.80;;
6735;SDS011;3405;50.576;12.364;2023-09-30T03:03:43;3.35;;;2.05;;
6735;SDS011;3405;50.576;12.364;2023-09-30T03:06:09;4.22;;;1.90;;
6735;SDS011;3405;50.576;12.364;2023-09-30T03:08:35;2.47;;;1.67;;
6735;SDS011;3405;50.576;12.364;2023-09-30T03:11:01;3.47;;;1.95;;
6735;SDS011;3405;50.576;12.364;2023-09-30T03:13:28;5.00;;;1.88;;
6735;SDS011;3405;50.576;12.364;2023-09-30T03:15:54;2.95;;;2.00;;
6735;SDS011;3405;50.576;12.364;2023-09-30T03:18:22;3.55;;;1.98;;
6735;SDS011;3405;50.576;12.364;2023-09-30T03:20:51;4.63;;;2.10;;
6735;SDS011;3405;50.576;12.364;2023-09-30T03:23:21;3.50;;;2.20;;
6735;SDS011;3405;50.576;12.364;2023-09-30T03:25:47;3.72;;;2.28;;
6735;SDS011;3405;50.576;12.364;2023-09-30T03:28:13;3.53;;;2.08;;
6735;SDS011;3405;50.576;12.364;2023-09-30T03:30:40;3.92;;;2.33;;
6735;SDS011;3405;50.576;12.364;2023-09-30T03:33:06;3.97;;;2.22;;
6735;SDS011;3405;50.576;12.364;2023-09-30T03:35:31;4.90;;;2.13;;
6735;SDS011;3405;50.576;12.364;2023-09-30T03:37:57;5.03;;;2.47;;
6735;SDS011;3405;50.576;12.364;2023-09-30T03:40:23;2.97;;;2.40;;
6735;SDS011;3405;50.576;12.364;2023-09-30T03:42:53;4.65;;;2.40;;
6735;SDS011;3405;50.576;12.364;2023-09-30T03:45:19;4.82;;;1.98;;
6735;SDS011;3405;50.576;12.364;2023-09-30T03:47:45;3.47;;;2.10;;
6735;SDS011;3405;50.576;12.364;2023-09-30T03:50:12;6.28;;;2.70;;
6735;SDS011;3405;50.576;12.364;2023-09-30T03:52:39;4.63;;;2.30;;
6735;SDS011;3405;50.576;12.364;2023-09-30T03:55:08;8.90;;;2.15;;
6735;SDS011;3405;50.576;12.364;2023-09-30T03:57:36;4.47;;;2.50;;
6735;SDS011;3405;50.576;12.364;2023-09-30T04:00:03;6.47;;;2.47;;
6735;SDS011;3405;50.576;12.364;2023-09-30T04:02:32;5.53;;;2.45;;
6735;SDS011;3405;50.576;12.364;2023-09-30T04:04:59;4.07;;;2.42;;
6735;SDS011;3405;50.576;12.364;2023-09-30T04:07:28;11.70;;;4.30;;
6735;SDS011;3405;50.576;12.364;2023-09-30T04:09:54;37.63;;;9.27;;
6735;SDS011;3405;50.576;12.364;2023-09-30T04:12:21;46.13;;;12.52;;
6735;SDS011;3405;50.576;12.364;2023-09-30T04:14:50;96.72;;;17.25;;
6735;SDS011;3405;50.576;12.364;2023-09-30T04:17:17;80.63;;;18.17;;
6735;SDS011;3405;50.576;12.364;2023-09-30T04:19:43;54.85;;;13.23;;
6735;SDS011;3405;50.576;12.364;2023-09-30T04:22:09;58.35;;;12.32;;
6735;SDS011;3405;50.576;12.364;2023-09-30T04:24:35;42.83;;;9.57;;
6735;SDS011;3405;50.576;12.364;2023-09-30T04:27:01;39.20;;;9.48;;
6735;SDS011;3405;50.576;12.364;2023-09-30T04:29:29;32.20;;;7.60;;
6735;SDS011;3405;50.576;12.364;2023-09-30T04:31:56;24.73;;;7.13;;
6735;SDS011;3405;50.576;12.364;2023-09-30T04:34:22;26.67;;;7.05;;
6735;SDS011;3405;50.576;12.364;2023-09-30T04:36:48;29.58;;;7.18;;
6735;SDS011;3405;50.576;12.364;2023-09-30T04:39:14;24.23;;;6.45;;
6735;SDS011;3405;50.576;12.364;2023-09-30T04:41:40;20.98;;;5.65;;
6735;SDS011;3405;50.576;12.364;2023-09-30T04:44:07;17.95;;;5.05;;
6735;SDS011;3405;50.576;12.364;2023-09-30T04:46:34;16.35;;;4.88;;
6735;SDS011;3405;50.576;12.364;2023-09-30T04:49:00;19.38;;;5.60;;
6735;SDS011;3405;50.576;12.364;2023-09-30T04:51:29;17.35;;;5.18;;
6735;SDS011;3405;50.576;12.364;2023-09-30T04:53:58;15.93;;;4.88;;
6735;SDS011;3405;50.576;12.364;2023-09-30T04:56:24;19.08;;;4.90;;
6735;SDS011;3405;50.576;12.364;2023-09-30T04:58:50;19.13;;;5.72;;
6735;SDS011;3405;50.576;12.364;2023-09-30T05:01:16;14.80;;;4.47;;
6735;SDS011;3405;50.576;12.364;2023-09-30T05:03:43;13.68;;;4.60;;
6735;SDS011;3405;50.576;12.364;2023-09-30T05:06:09;18.65;;;4.75;;
6735;SDS011;3405;50.576;12.364;2023-09-30T05:08:35;14.30;;;4.15;;
6735;SDS011;3405;50.576;12.364;2023-09-30T05:11:01;13.10;;;3.95;;
6735;SDS011;3405;50.576;12.364;2023-09-30T05:13:30;11.45;;;4.28;;
6735;SDS011;3405;50.576;12.364;2023-09-30T05:15:56;11.85;;;3.85;;
6735;SDS011;3405;50.576;12.364;2023-09-30T05:18:22;12.60;;;3.83;;
6735;SDS011;3405;50.576;12.364;2023-09-30T05:20:49;12.70;;;3.53;;
6735;SDS011;3405;50.576;12.364;2023-09-30T05:23:15;14.25;;;3.72;;
6735;SDS011;3405;50.576;12.364;2023-09-30T05:25:42;14.32;;;4.00;;
6735;SDS011;3405;50.576;12.364;2023-09-30T05:28:08;17.15;;;4.80;;
6735;SDS011;3405;50.576;12.364;2023-09-30T05:30:35;13.50;;;4.70;;
6735;SDS011;3405;50.576;12.364;2023-09-30T05:33:01;18.90;;;5.18;;
6735;SDS011;3405;50.576;12.364;2023-09-30T05:35:28;12.85;;;3.97;;
6735;SDS011;3405;50.576;12.364;2023-09-30T05:37:54;11.07;;;4.30;;
6735;SDS011;3405;50.576;12.364;2023-09-30T05:40:21;14.38;;;4.18;;
6735;SDS011;3405;50.576;12.364;2023-09-30T05:42:48;9.70;;;3.30;;
6735;SDS011;3405;50.576;12.364;2023-09-30T05:45:14;12.55;;;3.60;;
6735;SDS011;3405;50.576;12.364;2023-09-30T05:47:40;8.80;;;3.33;;
6735;SDS011;3405;50.576;12.364;2023-09-30T05:50:07;7.28;;;3.30;;
6735;SDS011;3405;50.576;12.364;2023-09-30T05:52:41;11.90;;;3.90;;
6735;SDS011;3405;50.576;12.364;2023-09-30T05:55:08;9.32;;;3.20;;
6735;SDS011;3405;50.576;12.364;2023-09-30T05:57:34;11.20;;;3.22;;
6735;SDS011;3405;50.576;12.364;2023-09-30T06:00:00;9.57;;;2.95;;
6735;SDS011;3405;50.576;12.364;2023-09-30T06:02:27;6.75;;;2.70;;
6735;SDS011;3405;50.576;12.364;2023-09-30T06:04:54;9.45;;;3.05;;
6735;SDS011;3405;50.576;12.364;2023-09-30T06:07:22;5.05;;;2.38;;
6735;SDS011;3405;50.576;12.364;2023-09-30T06:09:48;7.60;;;2.58;;
6735;SDS011;3405;50.576;12.364;2023-09-30T06:12:14;10.15;;;3.25;;
6735;SDS011;3405;50.576;12.364;2023-09-30T06:14:40;7.25;;;2.90;;
6735;SDS011;3405;50.576;12.364;2023-09-30T06:17:07;8.13;;;2.63;;
6735;SDS011;3405;50.576;12.364;2023-09-30T06:19:33;6.88;;;2.85;;
6735;SDS011;3405;50.576;12.364;2023-09-30T06:21:59;5.75;;;2.55;;
6735;SDS011;3405;50.576;12.364;2023-09-30T06:24:28;7.55;;;2.35;;
6735;SDS011;3405;50.576;12.364;2023-09-30T06:26:54;6.15;;;2.55;;
6735;SDS011;3405;50.576;12.364;2023-09-30T06:29:20;5.55;;;2.50;;
6735;SDS011;3405;50.576;12.364;2023-09-30T06:31:46;6.45;;;2.22;;
6735;SDS011;3405;50.576;12.364;2023-09-30T06:34:12;11.05;;;2.70;;
6735;SDS011;3405;50.576;12.364;2023-09-30T06:36:38;7.40;;;2.58;;
6735;SDS011;3405;50.576;12.364;2023-09-30T06:39:04;4.15;;;2.22;;
6735;SDS011;3405;50.576;12.364;2023-09-30T06:41:31;5.88;;;2.38;;
6735;SDS011;3405;50.576;12.364;2023-09-30T06:43:58;4.80;;;2.05;;
6735;SDS011;3405;50.576;12.364;2023-09-30T06:46:24;7.45;;;2.30;;
6735;SDS011;3405;50.576;12.364;2023-09-30T06:48:50;7.25;;;2.28;;
6735;SDS011;3405;50.576;12.364;2023-09-30T06:51:17;3.47;;;1.70;;
6735;SDS011;3405;50.576;12.364;2023-09-30T06:53:43;4.63;;;2.03;;
6735;SDS011;3405;50.576;12.364;2023-09-30T06:56:10;5.97;;;1.98;;
6735;SDS011;3405;50.576;12.364;2023-09-30T06:58:37;7.82;;;2.30;;
6735;SDS011;3405;50.576;12.364;2023-09-30T07:01:03;5.30;;;2.03;;
6735;SDS011;3405;50.576;12.364;2023-09-30T07:03:29;4.90;;;1.98;;
6735;SDS011;3405;50.576;12.364;2023-09-30T07:05:57;7.18;;;2.25;;
6735;SDS011;3405;50.576;12.364;2023-09-30T07:08:25;4.50;;;2.10;;
6735;SDS011;3405;50.576;12.364;2023-09-30T07:10:51;11.18;;;2.45;;
6735;SDS011;3405;50.576;12.364;2023-09-30T07:13:17;7.63;;;2.10;;
6735;SDS011;3405;50.576;12.364;2023-09-30T07:15:44;3.63;;;2.10;;
6735;SDS011;3405;50.576;12.364;2023-09-30T07:18:10;10.45;;;2.75;;
6735;SDS011;3405;50.576;12.364;2023-09-30T07:20:37;2.78;;;1.80;;
6735;SDS011;3405;50.576;12.364;2023-09-30T07:23:03;7.93;;;1.98;;
6735;SDS011;3405;50.576;12.364;2023-09-30T07:25:29;5.82;;;2.20;;
6735;SDS011;3405;50.576;12.364;2023-09-30T07:27:58;6.03;;;2.22;;
6735;SDS011;3405;50.576;12.364;2023-09-30T07:30:25;3.05;;;1.70;;
6735;SDS011;3405;50.576;12.364;2023-09-30T07:32:51;5.35;;;2.50;;
6735;SDS011;3405;50.576;12.364;2023-09-30T07:35:17;4.90;;;1.92;;
6735;SDS011;3405;50.576;12.364;2023-09-30T07:37:43;9.43;;;2.42;;
6735;SDS011;3405;50.576;12.364;2023-09-30T07:40:10;3.65;;;2.17;;
6735;SDS011;3405;50.576;12.364;2023-09-30T07:42:36;8.82;;;2.28;;
6735;SDS011;3405;50.576;12.364;2023-09-30T07:45:02;5.60;;;2.13;;
6735;SDS011;3405;50.576;12.364;2023-09-30T07:47:29;4.85;;;2.17;;
6735;SDS011;3405;50.576;12.364;2023-09-30T07:49:59;7.93;;;2.35;;
6735;SDS011;3405;50.576;12.364;2023-09-30T07:52:25;6.18;;;2.53;;
6735;SDS011;3405;50.576;12.364;2023-09-30T07:54:51;6.75;;;2.60;;
6735;SDS011;3405;50.576;12.364;2023-09-30T07:57:17;5.28;;;2.30;;
6735;SDS011;3405;50.576;12.364;2023-09-30T07:59:43;3.90;;;2.05;;
6735;SDS011;3405;50.576;12.364;2023-09-30T08:02:09;6.30;;;2.13;;
6735;SDS011;3405;50.576;12.364;2023-09-30T08:04:35;9.35;;;1.95;;
6735;SDS011;3405;50.576;12.364;2023-09-30T08:07:01;3.50;;;1.95;;
6735;SDS011;3405;50.576;12.364;2023-09-30T08:09:28;5.13;;;2.20;;
6735;SDS011;3405;50.576;12.364;2023-09-30T08:11:53;3.90;;;1.90;;
6735;SDS011;3405;50.576;12.364;2023-09-30T08:14:20;7.63;;;2.60;;
6735;SDS011;3405;50.576;12.364;2023-09-30T08:16:46;6.40;;;2.25;;
6735;SDS011;3405;50.576;12.364;2023-09-30T08:19:14;5.03;;;1.98;;
6735;SDS011;3405;50.576;12.364;2023-09-30T08:21:40;4.03;;;2.03;;
6735;SDS011;3405;50.576;12.364;2023-09-30T08:24:06;5.50;;;2.22;;
6735;SDS011;3405;50.576;12.364;2023-09-30T08:26:33;4.82;;;2.08;;
6735;SDS011;3405;50.576;12.364;2023-09-30T08:29:00;7.28;;;2.35;;
6735;SDS011;3405;50.576;12.364;2023-09-30T08:31:27;3.65;;;1.88;;
6735;SDS011;3405;50.576;12.364;2023-09-30T08:33:53;7.68;;;1.90;;
6735;SDS011;3405;50.576;12.364;2023-09-30T08:36:19;4.03;;;1.70;;
6735;SDS011;3405;50.576;12.364;2023-09-30T08:38:45;4.88;;;2.17;;
6735;SDS011;3405;50.576;12.364;2023-09-30T08:41:12;4.57;;;2.13;;
6735;SDS011;3405;50.576;12.364;2023-09-30T08:43:51;9.13;;;1.70;;
6735;SDS011;3405;50.576;12.364;2023-09-30T08:46:18;5.47;;;1.88;;
6735;SDS011;3405;50.576;12.364;2023-09-30T08:48:44;7.45;;;2.67;;
6735;SDS011;3405;50.576;12.364;2023-09-30T08:51:12;6.13;;;2.13;;
6735;SDS011;3405;50.576;12.364;2023-09-30T08:53:38;4.50;;;1.63;;
6735;SDS011;3405;50.576;12.364;2023-09-30T08:56:04;7.10;;;2.08;;
6735;SDS011;3405;50.576;12.364;2023-09-30T08:58:34;7.78;;;2.08;;
6735;SDS011;3405;50.576;12.364;2023-09-30T09:01:00;6.20;;;1.90;;
6735;SDS011;3405;50.576;12.364;2023-09-30T09:03:28;5.25;;;1.98;;
6735;SDS011;3405;50.576;12.364;2023-09-30T09:05:54;5.75;;;2.22;;
6735;SDS011;3405;50.576;12.364;2023-09-30T09:08:29;8.98;;;2.28;;
6735;SDS011;3405;50.576;12.364;2023-09-30T09:10:57;6.93;;;2.00;;
6735;SDS011;3405;50.576;12.364;2023-09-30T09:13:24;4.20;;;1.90;;
6735;SDS011;3405;50.576;12.364;2023-09-30T09:16:05;4.63;;;1.73;;
6735;SDS011;3405;50.576;12.364;2023-09-30T09:18:32;6.60;;;1.58;;
6735;SDS011;3405;50.576;12.364;2023-09-30T09:23:55;7.22;;;2.00;;
6735;SDS011;3405;50.576;12.364;2023-09-30T09:26:23;6.80;;;2.42;;
6735;SDS011;3405;50.576;12.364;2023-09-30T09:28:50;6.93;;;2.20;;
6735;SDS011;3405;50.576;12.364;2023-09-30T09:31:19;4.95;;;2.10;;
6735;SDS011;3405;50.576;12.364;2023-09-30T09:33:46;6.50;;;2.50;;
6735;SDS011;3405;50.576;12.364;2023-09-30T09:36:12;10.13;;;2.45;;
6735;SDS011;3405;50.576;12.364;2023-09-30T09:38:50;6.90;;;1.85;;
6735;SDS011;3405;50.576;12.364;2023-09-30T09:41:20;11.07;;;2.20;;
6735;SDS011;3405;50.576;12.364;2023-09-30T09:43:49;7.45;;;2.40;;
6735;SDS011;3405;50.576;12.364;2023-09-30T09:46:18;4.35;;;1.52;;
6735;SDS011;3405;50.576;12.364;2023-09-30T09:48:45;12.57;;;2.63;;
6735;SDS011;3405;50.576;12.364;2023-09-30T09:51:12;7.40;;;2.17;;
6735;SDS011;3405;50.576;12.364;2023-09-30T09:53:40;5.57;;;1.90;;
6735;SDS011;3405;50.576;12.364;2023-09-30T09:56:10;5.28;;;1.70;;
6735;SDS011;3405;50.576;12.364;2023-09-30T09:58:37;4.85;;;1.80;;
6735;SDS011;3405;50.576;12.364;2023-09-30T10:01:05;5.25;;;1.55;;
6735;SDS011;3405;50.576;12.364;2023-09-30T10:03:31;6.50;;;2.20;;
6735;SDS011;3405;50.576;12.364;2023-09-30T10:05:58;4.03;;;1.67;;
6735;SDS011;3405;50.576;12.364;2023-09-30T10:08:28;5.90;;;2.08;;
6735;SDS011;3405;50.576;12.364;2023-09-30T10:10:55;3.72;;;1.42;;
6735;SDS011;3405;50.576;12.364;2023-09-30T10:16:07;4.90;;;1.67;;
6735;SDS011;3405;50.576;12.364;2023-09-30T10:18:39;5.03;;;1.60;;
6735;SDS011;3405;50.576;12.364;2023-09-30T10:21:19;6.80;;;1.83;;
6735;SDS011;3405;50.576;12.364;2023-09-30T10:23:45;9.98;;;1.85;;
6735;SDS011;3405;50.576;12.364;2023-09-30T10:28:45;5.00;;;1.65;;
6735;SDS011;3405;50.576;12.364;2023-09-30T10:36:33;6.55;;;1.67;;
6735;SDS011;3405;50.576;12.364;2023-09-30T10:38:59;2.80;;;1.60;;
6735;SDS011;3405;50.576;12.364;2023-09-30T10:46:54;4.28;;;1.85;;
6735;SDS011;3405;50.576;12.364;2023-09-30T10:49:29;6.78;;;2.00;;
6735;SDS011;3405;50.576;12.364;2023-09-30T10:51:59;2.63;;;1.35;;
6735;SDS011;3405;50.576;12.364;2023-09-30T10:54:29;5.60;;;1.77;;
6735;SDS011;3405;50.576;12.364;2023-09-30T10:56:55;3.88;;;1.45;;
6735;SDS011;3405;50.576;12.364;2023-09-30T10:59:27;3.78;;;1.40;;
6735;SDS011;3405;50.576;12.364;2023-09-30T11:01:55;3.97;;;1.60;;
6735;SDS011;3405;50.576;12.364;2023-09-30T11:04:21;4.80;;;1.30;;
6735;SDS011;3405;50.576;12.364;2023-09-30T11:06:47;5.93;;;1.83;;
6735;SDS011;3405;50.576;12.364;2023-09-30T11:09:16;2.28;;;1.33;;
6735;SDS011;3405;50.576;12.364;2023-09-30T11:11:43;3.85;;;1.27;;
6735;SDS011;3405;50.576;12.364;2023-09-30T11:16:46;3.67;;;1.67;;
6735;SDS011;3405;50.576;12.364;2023-09-30T11:19:12;3.03;;;1.40;;
6735;SDS011;3405;50.576;12.364;2023-09-30T11:21:40;2.40;;;1.17;;
6735;SDS011;3405;50.576;12.364;2023-09-30T11:24:06;3.28;;;1.40;;
6735;SDS011;3405;50.576;12.364;2023-09-30T11:26:33;5.63;;;1.63;;
6735;SDS011;3405;50.576;12.364;2023-09-30T11:29:05;4.55;;;1.60;;
6735;SDS011;3405;50.576;12.364;2023-09-30T11:31:32;4.90;;;1.92;;
6735;SDS011;3405;50.576;12.364;2023-09-30T11:33:59;2.65;;;1.20;;
6735;SDS011;3405;50.576;12.364;2023-09-30T11:36:29;5.05;;;1.52;;
6735;SDS011;3405;50.576;12.364;2023-09-30T11:38:56;2.38;;;1.50;;
6735;SDS011;3405;50.576;12.364;2023-09-30T11:41:31;4.53;;;1.45;;
6735;SDS011;3405;50.576;12.364;2023-09-30T11:44:02;3.83;;;1.27;;
6735;SDS011;3405;50.576;12.364;2023-09-30T11:46:30;2.88;;;1.20;;
6735;SDS011;3405;50.576;12.364;2023-09-30T11:49:01;2.70;;;1.13;;
6735;SDS011;3405;50.576;12.364;2023-09-30T11:51:28;3.58;;;1.48;;
6735;SDS011;3405;50.576;12.364;2023-09-30T11:53:55;2.20;;;1.40;;
6735;SDS011;3405;50.576;12.364;2023-09-30T11:56:23;4.50;;;1.80;;
6735;SDS011;3405;50.576;12.364;2023-09-30T11:58:54;2.00;;;1.25;;
6735;SDS011;3405;50.576;12.364;2023-09-30T12:01:20;2.35;;;1.10;;
6735;SDS011;3405;50.576;12.364;2023-09-30T12:03:47;2.33;;;1.20;;
6735;SDS011;3405;50.576;12.364;2023-09-30T12:06:13;2.58;;;1.38;;
6735;SDS011;3405;50.576;12.364;2023-09-30T12:08:41;2.85;;;1.42;;
6735;SDS011;3405;50.576;12.364;2023-09-30T12:11:07;2.03;;;1.30;;
6735;SDS011;3405;50.576;12.364;2023-09-30T12:13:33;2.38;;;1.20;;
6735;SDS011;3405;50.576;12.364;2023-09-30T12:15:59;2.45;;;1.20;;
6735;SDS011;3405;50.576;12.364;2023-09-30T12:18:25;1.70;;;0.95;;
6735;SDS011;3405;50.576;12.364;2023-09-30T12:20:51;2.40;;;1.13;;
6735;SDS011;3405;50.576;12.364;2023-09-30T12:23:18;5.13;;;1.42;;
6735;SDS011;3405;50.576;12.364;2023-09-30T12:25:44;4.25;;;1.20;;
6735;SDS011;3405;50.576;12.364;2023-09-30T12:28:10;3.47;;;1.33;;
6735;SDS011;3405;50.576;12.364;2023-09-30T12:30:38;3.50;;;1.25;;
6735;SDS011;3405;50.576;12.364;2023-09-30T12:33:05;3.53;;;1.60;;
6735;SDS011;3405;50.576;12.364;2023-09-30T12:35:31;2.15;;;1.20;;
6735;SDS011;3405;50.576;12.364;2023-09-30T12:37:58;2.63;;;1.25;;
6735;SDS011;3405;50.576;12.364;2023-09-30T12:40:23;3.90;;;1.33;;
6735;SDS011;3405;50.576;12.364;2023-09-30T12:42:50;2.90;;;0.98;;
6735;SDS011;3405;50.576;12.364;2023-09-30T12:45:15;2.72;;;1.38;;
6735;SDS011;3405;50.576;12.364;2023-09-30T12:47:43;3.95;;;1.67;;
6735;SDS011;3405;50.576;12.364;2023-09-30T12:50:09;4.47;;;1.27;;
6735;SDS011;3405;50.576;12.364;2023-09-30T12:52:35;2.40;;;1.25;;
6735;SDS011;3405;50.576;12.364;2023-09-30T12:55:01;4.00;;;1.33;;
6735;SDS011;3405;50.576;12.364;2023-09-30T12:57:29;4.95;;;1.38;;
6735;SDS011;3405;50.576;12.364;2023-09-30T12:59:55;3.70;;;1.65;;
6735;SDS011;3405;50.576;12.364;2023-09-30T13:02:21;3.72;;;1.17;;
6735;SDS011;3405;50.576;12.364;2023-09-30T13:04:47;4.03;;;1.17;;
6735;SDS011;3405;50.576;12.364;2023-09-30T13:07:13;3.50;;;1.35;;
6735;SDS011;3405;50.576;12.364;2023-09-30T13:09:40;4.80;;;1.30;;
6735;SDS011;3405;50.576;12.364;2023-09-30T13:12:06;2.70;;;1.38;;
6735;SDS011;3405;50.576;12.364;2023-09-30T13:14:32;5.05;;;1.17;;
6735;SDS011;3405;50.576;12.364;2023-09-30T13:16:58;3.72;;;1.35;;
6735;SDS011;3405;50.576;12.364;2023-09-30T13:19:26;2.88;;;1.30;;
6735;SDS011;3405;50.576;12.364;2023-09-30T13:21:52;2.50;;;1.20;;
6735;SDS011;3405;50.576;12.364;2023-09-30T13:24:21;3.20;;;1.50;;
6735;SDS011;3405;50.576;12.364;2023-09-30T13:26:47;3.78;;;1.40;;
6735;SDS011;3405;50.576;12.364;2023-09-30T13:29:13;3.20;;;1.52;;
6735;SDS011;3405;50.576;12.364;2023-09-30T13:31:41;5.60;;;1.20;;
6735;SDS011;3405;50.576;12.364;2023-09-30T13:34:07;1.85;;;1.00;;
6735;SDS011;3405;50.576;12.364;2023-09-30T13:36:33;2.35;;;1.30;;
6735;SDS011;3405;50.576;12.364;2023-09-30T13:38:59;4.50;;;1.35;;
6735;SDS011;3405;50.576;12.364;2023-09-30T13:41:26;2.25;;;1.08;;
6735;SDS011;3405;50.576;12.364;2023-09-30T13:43:52;4.57;;;1.23;;
6735;SDS011;3405;50.576;12.364;2023-09-30T13:46:18;3.08;;;1.23;;
6735;SDS011;3405;50.576;12.364;2023-09-30T13:48:46;3.17;;;1.15;;
6735;SDS011;3405;50.576;12.364;2023-09-30T13:51:16;2.67;;;1.15;;
6735;SDS011;3405;50.576;12.364;2023-09-30T13:53:42;3.90;;;1.50;;
6735;SDS011;3405;50.576;12.364;2023-09-30T13:56:08;3.72;;;1.10;;
6735;SDS011;3405;50.576;12.364;2023-09-30T13:58:35;2.63;;;1.20;;
6735;SDS011;3405;50.576;12.364;2023-09-30T14:01:01;4.88;;;1.60;;
6735;SDS011;3405;50.576;12.364;2023-09-30T14:03:27;2.00;;;0.95;;
6735;SDS011;3405;50.576;12.364;2023-09-30T14:05:54;3.90;;;1.13;;
6735;SDS011;3405;50.576;12.364;2023-09-30T14:08:21;3.40;;;1.27;;
6735;SDS011;3405;50.576;12.364;2023-09-30T14:10:47;3.38;;;1.40;;
6735;SDS011;3405;50.576;12.364;2023-09-30T14:13:13;3.15;;;1.38;;
6735;SDS011;3405;50.576;12.364;2023-09-30T14:15:40;3.28;;;1.35;;
6735;SDS011;3405;50.576;12.364;2023-09-30T14:18:06;2.55;;;1.15;;
6735;SDS011;3405;50.576;12.364;2023-09-30T14:20:32;4.22;;;1.38;;
6735;SDS011;3405;50.576;12.364;2023-09-30T14:22:59;3.42;;;1.48;;
6735;SDS011;3405;50.576;12.364;2023-09-30T14:25:25;1.60;;;1.00;;
6735;SDS011;3405;50.576;12.364;2023-09-30T14:27:51;2.47;;;1.23;;
6735;SDS011;3405;50.576;12.364;2023-09-30T14:30:17;4.53;;;1.38;;
6735;SDS011;3405;50.576;12.364;2023-09-30T14:32:45;5.13;;;1.40;;
6735;SDS011;3405;50.576;12.364;2023-09-30T14:35:11;2.25;;;1.30;;
6735;SDS011;3405;50.576;12.364;2023-09-30T14:37:37;2.67;;;1.08;;
6735;SDS011;3405;50.576;12.364;2023-09-30T14:40:03;2.40;;;1.30;;
6735;SDS011;3405;50.576;12.364;2023-09-30T14:42:35;3.88;;;1.10;;
6735;SDS011;3405;50.576;12.364;2023-09-30T14:45:01;2.15;;;1.23;;
6735;SDS011;3405;50.576;12.364;2023-09-30T14:47:27;2.90;;;1.13;;
6735;SDS011;3405;50.576;12.364;2023-09-30T14:49:53;2.85;;;1.40;;
6735;SDS011;3405;50.576;12.364;2023-09-30T14:52:19;1.70;;;1.15;;
6735;SDS011;3405;50.576;12.364;2023-09-30T14:54:45;3.58;;;1.17;;
6735;SDS011;3405;50.576;12.364;2023-09-30T14:57:11;4.43;;;1.48;;
6735;SDS011;3405;50.576;12.364;2023-09-30T14:59:40;3.50;;;1.20;;
6735;SDS011;3405;50.576;12.364;2023-09-30T15:02:06;2.97;;;1.30;;
6735;SDS011;3405;50.576;12.364;2023-09-30T15:04:33;2.75;;;1.20;;
6735;SDS011;3405;50.576;12.364;2023-09-30T15:07:00;3.00;;;1.10;;
6735;SDS011;3405;50.576;12.364;2023-09-30T15:09:26;1.58;;;0.90;;
6735;SDS011;3405;50.576;12.364;2023-09-30T15:11:52;2.35;;;1.23;;
6735;SDS011;3405;50.576;12.364;2023-09-30T15:14:18;4.13;;;1.30;;
6735;SDS011;3405;50.576;12.364;2023-09-30T15:16:45;1.90;;;0.80;;